sensor_id;sensor_type;location;lat;lon;timestamp;P1;durP1;ratioP1;P2;durP2;ratioP2
3054;SDS011;1537;52.018;8.542;2023-07-31T00:00:15;3.50;;;1.00;;
3054;SDS011;1537;52.018;8.542;2023-07-31T00:03:39;4.40;;;1.60;;
3054;SDS011;1537;52.018;8.542;2023-07-31T00:07:04;4.63;;;1.80;;
3054;SDS011;1537;52.018;8.542;2023-07-31T00:10:28;3.90;;;1.67;;
3054;SDS011;1537;52.018;8.542;2023-07-31T00:13:52;5.40;;;2.33;;
3054;SDS011;1537;52.018;8.542;2023-07-31T00:17:16;4.53;;;2.63;;
3054;SDS011;1537;52.018;8.542;2023-07-31T00:20:41;6.83;;;2.70;;
3054;SDS011;1537;52.018;8.542;2023-07-31T00:24:06;5.10;;;2.70;;
3054;SDS011;1537;52.018;8.542;2023-07-31T00:27:29;5.90;;;3.20;;
3054;SDS011;1537;52.018;8.542;2023-07-31T00:30:53;4.80;;;2.70;;
3054;SDS011;1537;52.018;8.542;2023-07-31T00:34:20;5.10;;;3.00;;
3054;SDS011;1537;52.018;8.542;2023-07-31T00:37:44;4.97;;;3.10;;
3054;SDS011;1537;52.018;8.542;2023-07-31T00:41:09;4.80;;;3.03;;
3054;SDS011;1537;52.018;8.542;2023-07-31T00:44:33;5.83;;;3.07;;
3054;SDS011;1537;52.018;8.542;2023-07-31T00:47:56;4.90;;;3.07;;
3054;SDS011;1537;52.018;8.542;2023-07-31T00:51:20;5.50;;;2.53;;
3054;SDS011;1537;52.018;8.542;2023-07-31T00:54:45;4.90;;;2.63;;
3054;SDS011;1537;52.018;8.542;2023-07-31T00:58:10;5.60;;;3.10;;
3054;SDS011;1537;52.018;8.542;2023-07-31T01:01:33;5.27;;;2.87;;
3054;SDS011;1537;52.018;8.542;2023-07-31T01:04:58;4.17;;;2.37;;
3054;SDS011;1537;52.018;8.542;2023-07-31T01:08:24;5.23;;;2.50;;
3054;SDS011;1537;52.018;8.542;2023-07-31T01:11:56;5.40;;;2.47;;
3054;SDS011;1537;52.018;8.542;2023-07-31T01:15:24;5.93;;;2.70;;
3054;SDS011;1537;52.018;8.542;2023-07-31T01:18:48;5.43;;;2.90;;
3054;SDS011;1537;52.018;8.542;2023-07-31T01:22:23;6.37;;;3.53;;
3054;SDS011;1537;52.018;8.542;2023-07-31T01:26:01;5.27;;;3.30;;
3054;SDS011;1537;52.018;8.542;2023-07-31T01:29:35;5.00;;;2.60;;
3054;SDS011;1537;52.018;8.542;2023-07-31T01:33:06;6.00;;;2.70;;
3054;SDS011;1537;52.018;8.542;2023-07-31T01:36:31;6.77;;;3.13;;
3054;SDS011;1537;52.018;8.542;2023-07-31T01:39:55;4.83;;;2.10;;
3054;SDS011;1537;52.018;8.542;2023-07-31T01:43:20;5.97;;;2.60;;
3054;SDS011;1537;52.018;8.542;2023-07-31T01:46:44;4.93;;;2.73;;
3054;SDS011;1537;52.018;8.542;2023-07-31T01:50:08;4.43;;;1.70;;
3054;SDS011;1537;52.018;8.542;2023-07-31T01:53:32;4.70;;;2.00;;
3054;SDS011;1537;52.018;8.542;2023-07-31T01:56:56;4.40;;;1.80;;
3054;SDS011;1537;52.018;8.542;2023-07-31T02:00:21;5.97;;;2.23;;
3054;SDS011;1537;52.018;8.542;2023-07-31T02:03:44;5.47;;;1.63;;
3054;SDS011;1537;52.018;8.542;2023-07-31T02:07:09;4.20;;;1.67;;
3054;SDS011;1537;52.018;8.542;2023-07-31T02:10:33;5.27;;;2.07;;
3054;SDS011;1537;52.018;8.542;2023-07-31T02:13:57;3.90;;;1.40;;
3054;SDS011;1537;52.018;8.542;2023-07-31T02:17:22;3.83;;;1.53;;
3054;SDS011;1537;52.018;8.542;2023-07-31T02:20:48;4.17;;;1.70;;
3054;SDS011;1537;52.018;8.542;2023-07-31T02:24:13;4.37;;;1.80;;
3054;SDS011;1537;52.018;8.542;2023-07-31T02:27:37;3.63;;;1.30;;
3054;SDS011;1537;52.018;8.542;2023-07-31T02:31:00;5.80;;;1.70;;
3054;SDS011;1537;52.018;8.542;2023-07-31T02:34:25;4.20;;;1.70;;
3054;SDS011;1537;52.018;8.542;2023-07-31T02:37:49;5.27;;;1.97;;
3054;SDS011;1537;52.018;8.542;2023-07-31T02:41:14;3.97;;;1.67;;
3054;SDS011;1537;52.018;8.542;2023-07-31T02:44:37;4.20;;;1.80;;
3054;SDS011;1537;52.018;8.542;2023-07-31T02:48:01;4.50;;;1.50;;
3054;SDS011;1537;52.018;8.542;2023-07-31T02:51:26;3.80;;;1.20;;
3054;SDS011;1537;52.018;8.542;2023-07-31T02:54:50;3.77;;;1.20;;
3054;SDS011;1537;52.018;8.542;2023-07-31T02:58:13;4.93;;;1.43;;
3054;SDS011;1537;52.018;8.542;2023-07-31T03:01:37;3.40;;;0.83;;
3054;SDS011;1537;52.018;8.542;2023-07-31T03:05:00;3.53;;;1.00;;
3054;SDS011;1537;52.018;8.542;2023-07-31T03:08:26;5.07;;;2.73;;
3054;SDS011;1537;52.018;8.542;2023-07-31T03:11:50;4.00;;;1.70;;
3054;SDS011;1537;52.018;8.542;2023-07-31T03:15:13;5.00;;;2.53;;
3054;SDS011;1537;52.018;8.542;2023-07-31T03:18:37;5.50;;;3.70;;
3054;SDS011;1537;52.018;8.542;2023-07-31T03:22:02;8.93;;;5.70;;
3054;SDS011;1537;52.018;8.542;2023-07-31T03:25:27;11.60;;;6.17;;
3054;SDS011;1537;52.018;8.542;2023-07-31T03:28:51;10.67;;;6.40;;
3054;SDS011;1537;52.018;8.542;2023-07-31T03:32:15;13.90;;;8.93;;
3054;SDS011;1537;52.018;8.542;2023-07-31T03:35:38;14.13;;;9.63;;
3054;SDS011;1537;52.018;8.542;2023-07-31T03:39:02;16.40;;;10.53;;
3054;SDS011;1537;52.018;8.542;2023-07-31T03:42:27;14.33;;;10.97;;
3054;SDS011;1537;52.018;8.542;2023-07-31T03:45:51;16.50;;;11.87;;
3054;SDS011;1537;52.018;8.542;2023-07-31T03:49:15;18.63;;;12.40;;
3054;SDS011;1537;52.018;8.542;2023-07-31T03:52:39;18.50;;;13.83;;
3054;SDS011;1537;52.018;8.542;2023-07-31T03:56:04;18.03;;;12.90;;
3054;SDS011;1537;52.018;8.542;2023-07-31T03:59:29;28.87;;;13.63;;
3054;SDS011;1537;52.018;8.542;2023-07-31T04:02:53;20.70;;;12.20;;
3054;SDS011;1537;52.018;8.542;2023-07-31T04:06:16;21.00;;;14.10;;
3054;SDS011;1537;52.018;8.542;2023-07-31T04:09:42;20.63;;;13.60;;
3054;SDS011;1537;52.018;8.542;2023-07-31T04:13:05;24.17;;;14.07;;
3054;SDS011;1537;52.018;8.542;2023-07-31T04:16:30;21.47;;;13.40;;
3054;SDS011;1537;52.018;8.542;2023-07-31T04:19:54;20.60;;;15.00;;
3054;SDS011;1537;52.018;8.542;2023-07-31T04:23:17;22.27;;;13.57;;
3054;SDS011;1537;52.018;8.542;2023-07-31T04:26:41;22.50;;;13.03;;
3054;SDS011;1537;52.018;8.542;2023-07-31T04:30:05;20.80;;;13.63;;
3054;SDS011;1537;52.018;8.542;2023-07-31T04:33:31;21.07;;;12.87;;
3054;SDS011;1537;52.018;8.542;2023-07-31T04:36:55;21.37;;;11.97;;
3054;SDS011;1537;52.018;8.542;2023-07-31T04:40:18;17.87;;;11.20;;
3054;SDS011;1537;52.018;8.542;2023-07-31T04:43:42;18.90;;;12.00;;
3054;SDS011;1537;52.018;8.542;2023-07-31T04:47:06;23.30;;;12.33;;
3054;SDS011;1537;52.018;8.542;2023-07-31T04:50:31;14.57;;;11.80;;
3054;SDS011;1537;52.018;8.542;2023-07-31T04:53:55;21.07;;;14.07;;
3054;SDS011;1537;52.018;8.542;2023-07-31T04:57:19;19.80;;;13.40;;
3054;SDS011;1537;52.018;8.542;2023-07-31T05:00:42;18.57;;;11.37;;
3054;SDS011;1537;52.018;8.542;2023-07-31T05:04:06;16.60;;;11.50;;
3054;SDS011;1537;52.018;8.542;2023-07-31T05:07:31;16.40;;;9.67;;
3054;SDS011;1537;52.018;8.542;2023-07-31T05:10:55;17.50;;;11.10;;
3054;SDS011;1537;52.018;8.542;2023-07-31T05:14:18;19.10;;;9.63;;
3054;SDS011;1537;52.018;8.542;2023-07-31T05:17:43;16.07;;;9.20;;
3054;SDS011;1537;52.018;8.542;2023-07-31T05:21:06;20.93;;;10.87;;
3054;SDS011;1537;52.018;8.542;2023-07-31T05:24:31;16.90;;;8.30;;
3054;SDS011;1537;52.018;8.542;2023-07-31T05:27:55;23.83;;;11.53;;
3054;SDS011;1537;52.018;8.542;2023-07-31T05:31:19;16.37;;;8.57;;
3054;SDS011;1537;52.018;8.542;2023-07-31T05:34:44;15.00;;;8.90;;
3054;SDS011;1537;52.018;8.542;2023-07-31T05:38:07;12.73;;;7.83;;
3054;SDS011;1537;52.018;8.542;2023-07-31T05:41:33;16.97;;;8.20;;
3054;SDS011;1537;52.018;8.542;2023-07-31T05:44:58;19.53;;;8.60;;
3054;SDS011;1537;52.018;8.542;2023-07-31T05:48:21;14.33;;;8.00;;
3054;SDS011;1537;52.018;8.542;2023-07-31T05:51:45;18.10;;;8.17;;
3054;SDS011;1537;52.018;8.542;2023-07-31T05:55:09;11.93;;;6.30;;
3054;SDS011;1537;52.018;8.542;2023-07-31T05:58:34;13.73;;;8.10;;
3054;SDS011;1537;52.018;8.542;2023-07-31T06:01:57;18.07;;;7.77;;
3054;SDS011;1537;52.018;8.542;2023-07-31T06:05:21;13.13;;;6.90;;
3054;SDS011;1537;52.018;8.542;2023-07-31T06:08:45;12.87;;;8.20;;
3054;SDS011;1537;52.018;8.542;2023-07-31T06:12:08;14.07;;;7.30;;
3054;SDS011;1537;52.018;8.542;2023-07-31T06:15:33;15.10;;;7.63;;
3054;SDS011;1537;52.018;8.542;2023-07-31T06:18:57;14.77;;;8.00;;
3054;SDS011;1537;52.018;8.542;2023-07-31T06:22:20;11.77;;;7.10;;
3054;SDS011;1537;52.018;8.542;2023-07-31T06:25:44;14.73;;;8.00;;
3054;SDS011;1537;52.018;8.542;2023-07-31T06:29:08;12.30;;;7.03;;
3054;SDS011;1537;52.018;8.542;2023-07-31T06:32:33;14.33;;;6.97;;
3054;SDS011;1537;52.018;8.542;2023-07-31T06:35:58;19.23;;;6.47;;
3054;SDS011;1537;52.018;8.542;2023-07-31T06:39:22;17.10;;;7.20;;
3054;SDS011;1537;52.018;8.542;2023-07-31T06:42:46;17.13;;;6.93;;
3054;SDS011;1537;52.018;8.542;2023-07-31T06:46:09;14.27;;;6.77;;
3054;SDS011;1537;52.018;8.542;2023-07-31T06:49:34;16.60;;;6.80;;
3054;SDS011;1537;52.018;8.542;2023-07-31T06:52:58;15.03;;;6.10;;
3054;SDS011;1537;52.018;8.542;2023-07-31T06:56:22;13.80;;;6.70;;
3054;SDS011;1537;52.018;8.542;2023-07-31T06:59:46;14.57;;;7.17;;
3054;SDS011;1537;52.018;8.542;2023-07-31T07:03:09;13.50;;;6.57;;
3054;SDS011;1537;52.018;8.542;2023-07-31T07:06:34;14.70;;;7.90;;
3054;SDS011;1537;52.018;8.542;2023-07-31T07:09:58;11.03;;;6.20;;
3054;SDS011;1537;52.018;8.542;2023-07-31T07:13:22;16.93;;;8.30;;
3054;SDS011;1537;52.018;8.542;2023-07-31T07:16:50;12.97;;;6.53;;
3054;SDS011;1537;52.018;8.542;2023-07-31T07:20:14;12.63;;;7.10;;
3054;SDS011;1537;52.018;8.542;2023-07-31T07:23:39;14.13;;;8.43;;
3054;SDS011;1537;52.018;8.542;2023-07-31T07:27:02;12.27;;;7.50;;
3054;SDS011;1537;52.018;8.542;2023-07-31T07:30:26;15.53;;;6.47;;
3054;SDS011;1537;52.018;8.542;2023-07-31T07:33:50;14.37;;;8.03;;
3054;SDS011;1537;52.018;8.542;2023-07-31T07:37:13;12.03;;;6.70;;
3054;SDS011;1537;52.018;8.542;2023-07-31T07:40:39;11.97;;;6.80;;
3054;SDS011;1537;52.018;8.542;2023-07-31T07:44:03;18.83;;;8.53;;
3054;SDS011;1537;52.018;8.542;2023-07-31T07:47:27;14.90;;;6.50;;
3054;SDS011;1537;52.018;8.542;2023-07-31T07:50:50;12.63;;;6.70;;
3054;SDS011;1537;52.018;8.542;2023-07-31T07:54:14;14.33;;;6.87;;
3054;SDS011;1537;52.018;8.542;2023-07-31T07:57:40;11.23;;;6.13;;
3054;SDS011;1537;52.018;8.542;2023-07-31T08:01:03;13.97;;;7.70;;
3054;SDS011;1537;52.018;8.542;2023-07-31T08:04:27;9.80;;;6.30;;
3054;SDS011;1537;52.018;8.542;2023-07-31T08:07:50;8.13;;;4.27;;
3054;SDS011;1537;52.018;8.542;2023-07-31T08:11:14;7.53;;;3.60;;
3054;SDS011;1537;52.018;8.542;2023-07-31T08:14:39;8.53;;;5.10;;
3054;SDS011;1537;52.018;8.542;2023-07-31T08:18:03;8.53;;;4.37;;
3054;SDS011;1537;52.018;8.542;2023-07-31T08:21:27;8.20;;;5.27;;
3054;SDS011;1537;52.018;8.542;2023-07-31T08:24:51;8.07;;;4.70;;
3054;SDS011;1537;52.018;8.542;2023-07-31T08:28:14;8.27;;;5.27;;
3054;SDS011;1537;52.018;8.542;2023-07-31T08:31:39;9.93;;;5.00;;
3054;SDS011;1537;52.018;8.542;2023-07-31T08:35:03;7.47;;;4.57;;
3054;SDS011;1537;52.018;8.542;2023-07-31T08:38:27;8.33;;;4.83;;
3054;SDS011;1537;52.018;8.542;2023-07-31T08:41:51;9.43;;;5.70;;
3054;SDS011;1537;52.018;8.542;2023-07-31T08:45:21;8.23;;;5.10;;
3054;SDS011;1537;52.018;8.542;2023-07-31T08:48:46;10.73;;;5.10;;
3054;SDS011;1537;52.018;8.542;2023-07-31T08:52:10;7.80;;;4.33;;
3054;SDS011;1537;52.018;8.542;2023-07-31T08:55:34;10.63;;;5.90;;
3054;SDS011;1537;52.018;8.542;2023-07-31T08:58:59;9.13;;;6.00;;
3054;SDS011;1537;52.018;8.542;2023-07-31T09:02:25;11.90;;;6.20;;
3054;SDS011;1537;52.018;8.542;2023-07-31T09:05:59;11.30;;;4.67;;
3054;SDS011;1537;52.018;8.542;2023-07-31T09:09:24;10.03;;;6.13;;
3054;SDS011;1537;52.018;8.542;2023-07-31T09:12:48;12.60;;;5.57;;
3054;SDS011;1537;52.018;8.542;2023-07-31T09:16:12;10.10;;;5.03;;
3054;SDS011;1537;52.018;8.542;2023-07-31T09:19:36;9.00;;;5.30;;
3054;SDS011;1537;52.018;8.542;2023-07-31T09:23:06;8.60;;;5.37;;
3054;SDS011;1537;52.018;8.542;2023-07-31T09:26:32;11.30;;;6.80;;
3054;SDS011;1537;52.018;8.542;2023-07-31T09:29:58;11.70;;;5.60;;
3054;SDS011;1537;52.018;8.542;2023-07-31T09:33:23;12.77;;;5.67;;
3054;SDS011;1537;52.018;8.542;2023-07-31T09:36:48;10.43;;;5.13;;
3054;SDS011;1537;52.018;8.542;2023-07-31T09:40:25;10.20;;;4.70;;
3054;SDS011;1537;52.018;8.542;2023-07-31T09:43:54;9.27;;;5.87;;
3054;SDS011;1537;52.018;8.542;2023-07-31T09:47:21;7.77;;;5.10;;
3054;SDS011;1537;52.018;8.542;2023-07-31T09:50:48;9.37;;;5.40;;
3054;SDS011;1537;52.018;8.542;2023-07-31T09:54:12;8.43;;;4.90;;
3054;SDS011;1537;52.018;8.542;2023-07-31T09:57:39;9.30;;;5.47;;
3054;SDS011;1537;52.018;8.542;2023-07-31T10:01:04;7.50;;;4.80;;
3054;SDS011;1537;52.018;8.542;2023-07-31T10:04:28;7.43;;;4.27;;
3054;SDS011;1537;52.018;8.542;2023-07-31T10:07:53;8.77;;;4.47;;
3054;SDS011;1537;52.018;8.542;2023-07-31T10:11:18;9.00;;;4.20;;
3054;SDS011;1537;52.018;8.542;2023-07-31T10:14:43;7.27;;;4.30;;
3054;SDS011;1537;52.018;8.542;2023-07-31T10:18:07;9.10;;;4.63;;
3054;SDS011;1537;52.018;8.542;2023-07-31T10:21:31;7.83;;;4.27;;
3054;SDS011;1537;52.018;8.542;2023-07-31T10:24:57;7.00;;;4.00;;
3054;SDS011;1537;52.018;8.542;2023-07-31T10:28:22;6.93;;;3.93;;
3054;SDS011;1537;52.018;8.542;2023-07-31T10:31:49;6.00;;;3.80;;
3054;SDS011;1537;52.018;8.542;2023-07-31T10:35:14;4.50;;;2.83;;
3054;SDS011;1537;52.018;8.542;2023-07-31T10:38:40;6.00;;;3.23;;
3054;SDS011;1537;52.018;8.542;2023-07-31T10:42:10;6.27;;;2.40;;
3054;SDS011;1537;52.018;8.542;2023-07-31T10:45:35;6.60;;;2.37;;
3054;SDS011;1537;52.018;8.542;2023-07-31T10:49:03;5.13;;;2.37;;
3054;SDS011;1537;52.018;8.542;2023-07-31T10:52:27;4.57;;;2.40;;
3054;SDS011;1537;52.018;8.542;2023-07-31T10:55:58;5.10;;;2.70;;
3054;SDS011;1537;52.018;8.542;2023-07-31T10:59:26;5.30;;;2.37;;
3054;SDS011;1537;52.018;8.542;2023-07-31T11:02:56;5.70;;;2.50;;
3054;SDS011;1537;52.018;8.542;2023-07-31T11:06:22;4.73;;;2.30;;
3054;SDS011;1537;52.018;8.542;2023-07-31T11:09:52;7.30;;;2.40;;
3054;SDS011;1537;52.018;8.542;2023-07-31T11:13:16;5.07;;;2.47;;
3054;SDS011;1537;52.018;8.542;2023-07-31T11:16:40;5.20;;;2.63;;
3054;SDS011;1537;52.018;8.542;2023-07-31T11:20:05;4.70;;;2.40;;
3054;SDS011;1537;52.018;8.542;2023-07-31T11:23:31;5.03;;;2.87;;
3054;SDS011;1537;52.018;8.542;2023-07-31T11:26:55;5.53;;;2.60;;
3054;SDS011;1537;52.018;8.542;2023-07-31T11:30:19;5.73;;;2.67;;
3054;SDS011;1537;52.018;8.542;2023-07-31T11:33:43;5.40;;;2.30;;
3054;SDS011;1537;52.018;8.542;2023-07-31T11:37:06;4.40;;;2.17;;
3054;SDS011;1537;52.018;8.542;2023-07-31T11:40:40;5.70;;;2.13;;
3054;SDS011;1537;52.018;8.542;2023-07-31T11:44:04;5.33;;;2.60;;
3054;SDS011;1537;52.018;8.542;2023-07-31T11:47:48;3.97;;;1.90;;
3054;SDS011;1537;52.018;8.542;2023-07-31T11:51:12;8.73;;;3.60;;
3054;SDS011;1537;52.018;8.542;2023-07-31T11:54:37;6.03;;;3.60;;
3054;SDS011;1537;52.018;8.542;2023-07-31T11:58:02;5.40;;;2.80;;
3054;SDS011;1537;52.018;8.542;2023-07-31T12:01:26;5.90;;;2.90;;
3054;SDS011;1537;52.018;8.542;2023-07-31T12:04:51;5.97;;;2.83;;
3054;SDS011;1537;52.018;8.542;2023-07-31T12:08:15;4.77;;;2.47;;
3054;SDS011;1537;52.018;8.542;2023-07-31T12:11:47;4.90;;;2.80;;
3054;SDS011;1537;52.018;8.542;2023-07-31T12:15:16;5.40;;;2.47;;
3054;SDS011;1537;52.018;8.542;2023-07-31T12:18:40;5.40;;;2.33;;
3054;SDS011;1537;52.018;8.542;2023-07-31T12:22:10;6.90;;;3.07;;
3054;SDS011;1537;52.018;8.542;2023-07-31T12:25:34;5.40;;;2.33;;
3054;SDS011;1537;52.018;8.542;2023-07-31T12:28:59;4.60;;;2.20;;
3054;SDS011;1537;52.018;8.542;2023-07-31T12:32:24;5.33;;;2.40;;
3054;SDS011;1537;52.018;8.542;2023-07-31T12:35:50;4.13;;;2.13;;
3054;SDS011;1537;52.018;8.542;2023-07-31T12:39:15;6.20;;;3.20;;
3054;SDS011;1537;52.018;8.542;2023-07-31T12:42:38;4.33;;;2.20;;
3054;SDS011;1537;52.018;8.542;2023-07-31T12:46:03;4.10;;;1.90;;
3054;SDS011;1537;52.018;8.542;2023-07-31T12:49:29;5.13;;;2.87;;
3054;SDS011;1537;52.018;8.542;2023-07-31T12:52:53;5.90;;;2.60;;
3054;SDS011;1537;52.018;8.542;2023-07-31T12:56:19;4.77;;;2.60;;
3054;SDS011;1537;52.018;8.542;2023-07-31T12:59:43;5.13;;;3.20;;
3054;SDS011;1537;52.018;8.542;2023-07-31T13:03:07;5.97;;;3.73;;
3054;SDS011;1537;52.018;8.542;2023-07-31T13:06:32;10.47;;;5.70;;
3054;SDS011;1537;52.018;8.542;2023-07-31T13:09:56;7.70;;;5.47;;
3054;SDS011;1537;52.018;8.542;2023-07-31T13:13:20;7.87;;;5.60;;
3054;SDS011;1537;52.018;8.542;2023-07-31T13:16:44;7.57;;;4.83;;
3054;SDS011;1537;52.018;8.542;2023-07-31T13:20:08;6.90;;;5.10;;
3054;SDS011;1537;52.018;8.542;2023-07-31T13:23:33;9.37;;;6.03;;
3054;SDS011;1537;52.018;8.542;2023-07-31T13:26:57;7.60;;;5.27;;
3054;SDS011;1537;52.018;8.542;2023-07-31T13:30:21;6.63;;;4.40;;
3054;SDS011;1537;52.018;8.542;2023-07-31T13:33:45;7.73;;;4.73;;
3054;SDS011;1537;52.018;8.542;2023-07-31T13:37:09;8.43;;;4.90;;
3054;SDS011;1537;52.018;8.542;2023-07-31T13:40:34;7.20;;;4.40;;
3054;SDS011;1537;52.018;8.542;2023-07-31T13:43:57;8.00;;;5.07;;
3054;SDS011;1537;52.018;8.542;2023-07-31T13:47:21;6.37;;;4.07;;
3054;SDS011;1537;52.018;8.542;2023-07-31T13:50:45;7.87;;;4.17;;
3054;SDS011;1537;52.018;8.542;2023-07-31T13:54:09;6.60;;;3.97;;
3054;SDS011;1537;52.018;8.542;2023-07-31T13:57:35;6.43;;;3.67;;
3054;SDS011;1537;52.018;8.542;2023-07-31T14:00:58;6.70;;;4.20;;
3054;SDS011;1537;52.018;8.542;2023-07-31T14:04:22;6.37;;;4.00;;
3054;SDS011;1537;52.018;8.542;2023-07-31T14:07:46;5.77;;;4.07;;
3054;SDS011;1537;52.018;8.542;2023-07-31T14:11:09;7.37;;;4.60;;
3054;SDS011;1537;52.018;8.542;2023-07-31T14:14:37;8.07;;;4.20;;
3054;SDS011;1537;52.018;8.542;2023-07-31T14:18:01;6.17;;;3.70;;
3054;SDS011;1537;52.018;8.542;2023-07-31T14:21:25;6.07;;;3.97;;
3054;SDS011;1537;52.018;8.542;2023-07-31T14:24:49;5.97;;;3.73;;
3054;SDS011;1537;52.018;8.542;2023-07-31T14:28:13;6.97;;;4.40;;
3054;SDS011;1537;52.018;8.542;2023-07-31T14:31:38;7.13;;;4.20;;
3054;SDS011;1537;52.018;8.542;2023-07-31T14:35:01;7.10;;;4.07;;
3054;SDS011;1537;52.018;8.542;2023-07-31T14:38:25;7.30;;;4.17;;
3054;SDS011;1537;52.018;8.542;2023-07-31T14:41:49;6.23;;;4.37;;
3054;SDS011;1537;52.018;8.542;2023-07-31T14:45:12;8.60;;;4.30;;
3054;SDS011;1537;52.018;8.542;2023-07-31T14:48:38;6.50;;;4.10;;
3054;SDS011;1537;52.018;8.542;2023-07-31T14:52:02;6.00;;;3.73;;
3054;SDS011;1537;52.018;8.542;2023-07-31T14:55:26;5.30;;;3.00;;
3054;SDS011;1537;52.018;8.542;2023-07-31T14:58:49;5.90;;;4.07;;
3054;SDS011;1537;52.018;8.542;2023-07-31T15:02:14;11.13;;;3.83;;
3054;SDS011;1537;52.018;8.542;2023-07-31T15:05:39;6.63;;;3.90;;
3054;SDS011;1537;52.018;8.542;2023-07-31T15:09:03;5.33;;;2.87;;
3054;SDS011;1537;52.018;8.542;2023-07-31T15:12:26;4.93;;;2.70;;
3054;SDS011;1537;52.018;8.542;2023-07-31T15:15:50;7.50;;;3.80;;
3054;SDS011;1537;52.018;8.542;2023-07-31T15:19:14;5.83;;;3.10;;
3054;SDS011;1537;52.018;8.542;2023-07-31T15:22:39;6.60;;;3.03;;
3054;SDS011;1537;52.018;8.542;2023-07-31T15:26:02;5.10;;;2.80;;
3054;SDS011;1537;52.018;8.542;2023-07-31T15:29:26;8.73;;;4.33;;
3054;SDS011;1537;52.018;8.542;2023-07-31T15:32:50;9.27;;;3.60;;
3054;SDS011;1537;52.018;8.542;2023-07-31T15:36:14;6.83;;;3.87;;
3054;SDS011;1537;52.018;8.542;2023-07-31T15:39:40;6.50;;;3.40;;
3054;SDS011;1537;52.018;8.542;2023-07-31T15:43:04;6.67;;;3.87;;
3054;SDS011;1537;52.018;8.542;2023-07-31T15:46:27;5.53;;;3.50;;
3054;SDS011;1537;52.018;8.542;2023-07-31T15:49:51;10.73;;;4.20;;
3054;SDS011;1537;52.018;8.542;2023-07-31T15:53:15;8.43;;;4.50;;
3054;SDS011;1537;52.018;8.542;2023-07-31T15:56:40;8.23;;;4.37;;
3054;SDS011;1537;52.018;8.542;2023-07-31T16:00:04;6.07;;;3.40;;
3054;SDS011;1537;52.018;8.542;2023-07-31T16:03:29;7.93;;;3.57;;
3054;SDS011;1537;52.018;8.542;2023-07-31T16:06:53;6.00;;;2.97;;
3054;SDS011;1537;52.018;8.542;2023-07-31T16:10:16;7.50;;;3.60;;
3054;SDS011;1537;52.018;8.542;2023-07-31T16:13:41;7.77;;;3.87;;
3054;SDS011;1537;52.018;8.542;2023-07-31T16:17:05;7.60;;;4.00;;
3054;SDS011;1537;52.018;8.542;2023-07-31T16:20:29;7.00;;;3.90;;
3054;SDS011;1537;52.018;8.542;2023-07-31T16:23:53;5.40;;;3.50;;
3054;SDS011;1537;52.018;8.542;2023-07-31T16:27:16;7.00;;;4.40;;
3054;SDS011;1537;52.018;8.542;2023-07-31T16:30:42;7.10;;;3.70;;
3054;SDS011;1537;52.018;8.542;2023-07-31T16:34:08;5.90;;;3.43;;
3054;SDS011;1537;52.018;8.542;2023-07-31T16:37:32;11.03;;;3.50;;
3054;SDS011;1537;52.018;8.542;2023-07-31T16:40:56;7.37;;;3.90;;
3054;SDS011;1537;52.018;8.542;2023-07-31T16:44:20;8.10;;;4.93;;
3054;SDS011;1537;52.018;8.542;2023-07-31T16:47:45;7.67;;;4.80;;
3054;SDS011;1537;52.018;8.542;2023-07-31T16:51:08;7.67;;;4.37;;
3054;SDS011;1537;52.018;8.542;2023-07-31T16:54:32;7.73;;;3.97;;
3054;SDS011;1537;52.018;8.542;2023-07-31T16:57:56;8.70;;;5.00;;
3054;SDS011;1537;52.018;8.542;2023-07-31T17:01:20;10.43;;;4.80;;
3054;SDS011;1537;52.018;8.542;2023-07-31T17:04:45;7.40;;;4.00;;
3054;SDS011;1537;52.018;8.542;2023-07-31T17:08:09;7.47;;;4.30;;
3054;SDS011;1537;52.018;8.542;2023-07-31T17:11:33;8.97;;;4.20;;
3054;SDS011;1537;52.018;8.542;2023-07-31T17:14:57;7.37;;;4.70;;
3054;SDS011;1537;52.018;8.542;2023-07-31T17:18:21;7.30;;;4.27;;
3054;SDS011;1537;52.018;8.542;2023-07-31T17:21:46;15.30;;;4.83;;
3054;SDS011;1537;52.018;8.542;2023-07-31T17:25:10;10.73;;;5.03;;
3054;SDS011;1537;52.018;8.542;2023-07-31T17:28:33;8.60;;;4.80;;
3054;SDS011;1537;52.018;8.542;2023-07-31T17:31:57;8.63;;;5.10;;
3054;SDS011;1537;52.018;8.542;2023-07-31T17:35:21;7.70;;;5.47;;
3054;SDS011;1537;52.018;8.542;2023-07-31T17:38:46;10.73;;;5.70;;
3054;SDS011;1537;52.018;8.542;2023-07-31T17:42:09;9.83;;;5.70;;
3054;SDS011;1537;52.018;8.542;2023-07-31T17:45:33;7.67;;;5.10;;
3054;SDS011;1537;52.018;8.542;2023-07-31T17:48:56;9.47;;;5.30;;
3054;SDS011;1537;52.018;8.542;2023-07-31T17:52:21;7.30;;;4.70;;
3054;SDS011;1537;52.018;8.542;2023-07-31T17:55:46;6.97;;;4.47;;
3054;SDS011;1537;52.018;8.542;2023-07-31T17:59:09;9.10;;;4.97;;
3054;SDS011;1537;52.018;8.542;2023-07-31T18:02:34;8.20;;;4.73;;
3054;SDS011;1537;52.018;8.542;2023-07-31T18:06:00;9.47;;;5.37;;
3054;SDS011;1537;52.018;8.542;2023-07-31T18:09:23;7.67;;;5.37;;
3054;SDS011;1537;52.018;8.542;2023-07-31T18:12:48;6.80;;;4.43;;
3054;SDS011;1537;52.018;8.542;2023-07-31T18:16:12;7.47;;;5.27;;
3054;SDS011;1537;52.018;8.542;2023-07-31T18:19:36;6.70;;;4.77;;
3054;SDS011;1537;52.018;8.542;2023-07-31T18:22:59;8.97;;;5.03;;
3054;SDS011;1537;52.018;8.542;2023-07-31T18:26:27;7.47;;;5.30;;
3054;SDS011;1537;52.018;8.542;2023-07-31T18:29:51;8.43;;;5.00;;
3054;SDS011;1537;52.018;8.542;2023-07-31T18:33:19;7.90;;;5.43;;
3054;SDS011;1537;52.018;8.542;2023-07-31T18:36:43;8.40;;;5.53;;
3054;SDS011;1537;52.018;8.542;2023-07-31T18:40:12;8.63;;;5.90;;
3054;SDS011;1537;52.018;8.542;2023-07-31T18:43:36;9.93;;;5.03;;
3054;SDS011;1537;52.018;8.542;2023-07-31T18:47:02;7.17;;;5.33;;
3054;SDS011;1537;52.018;8.542;2023-07-31T18:50:26;10.33;;;6.07;;
3054;SDS011;1537;52.018;8.542;2023-07-31T18:53:53;8.03;;;5.27;;
3054;SDS011;1537;52.018;8.542;2023-07-31T18:57:20;10.27;;;5.63;;
3054;SDS011;1537;52.018;8.542;2023-07-31T19:00:44;8.10;;;5.70;;
3054;SDS011;1537;52.018;8.542;2023-07-31T19:04:09;8.50;;;5.33;;
3054;SDS011;1537;52.018;8.542;2023-07-31T19:07:32;9.90;;;4.90;;
3054;SDS011;1537;52.018;8.542;2023-07-31T19:10:56;8.60;;;4.77;;
3054;SDS011;1537;52.018;8.542;2023-07-31T19:14:21;9.50;;;4.83;;
3054;SDS011;1537;52.018;8.542;2023-07-31T19:17:46;6.80;;;4.13;;
3054;SDS011;1537;52.018;8.542;2023-07-31T19:21:11;8.07;;;5.03;;
3054;SDS011;1537;52.018;8.542;2023-07-31T19:24:36;6.90;;;4.50;;
3054;SDS011;1537;52.018;8.542;2023-07-31T19:28:01;9.33;;;3.90;;
3054;SDS011;1537;52.018;8.542;2023-07-31T19:31:25;6.37;;;4.10;;
3054;SDS011;1537;52.018;8.542;2023-07-31T19:34:49;8.17;;;4.43;;
3054;SDS011;1537;52.018;8.542;2023-07-31T19:38:13;10.03;;;4.73;;
3054;SDS011;1537;52.018;8.542;2023-07-31T19:41:37;7.97;;;5.20;;
3054;SDS011;1537;52.018;8.542;2023-07-31T19:45:01;7.73;;;4.30;;
3054;SDS011;1537;52.018;8.542;2023-07-31T19:48:25;6.73;;;4.07;;
3054;SDS011;1537;52.018;8.542;2023-07-31T19:51:49;6.10;;;3.60;;
3054;SDS011;1537;52.018;8.542;2023-07-31T19:55:14;8.73;;;4.47;;
3054;SDS011;1537;52.018;8.542;2023-07-31T19:58:38;10.63;;;4.47;;
3054;SDS011;1537;52.018;8.542;2023-07-31T20:02:02;6.73;;;4.20;;
3054;SDS011;1537;52.018;8.542;2023-07-31T20:05:27;6.53;;;3.80;;
3054;SDS011;1537;52.018;8.542;2023-07-31T20:08:51;6.80;;;4.00;;
3054;SDS011;1537;52.018;8.542;2023-07-31T20:12:16;5.73;;;3.23;;
3054;SDS011;1537;52.018;8.542;2023-07-31T20:15:40;8.30;;;4.27;;
3054;SDS011;1537;52.018;8.542;2023-07-31T20:19:03;6.10;;;3.10;;
3054;SDS011;1537;52.018;8.542;2023-07-31T20:22:27;5.77;;;3.40;;
3054;SDS011;1537;52.018;8.542;2023-07-31T20:25:50;5.90;;;3.63;;
3054;SDS011;1537;52.018;8.542;2023-07-31T20:29:15;5.97;;;3.13;;
3054;SDS011;1537;52.018;8.542;2023-07-31T20:32:39;4.60;;;2.40;;
3054;SDS011;1537;52.018;8.542;2023-07-31T20:36:03;5.20;;;2.87;;
3054;SDS011;1537;52.018;8.542;2023-07-31T20:39:28;6.07;;;2.70;;
3054;SDS011;1537;52.018;8.542;2023-07-31T20:42:55;4.50;;;2.47;;
3054;SDS011;1537;52.018;8.542;2023-07-31T20:46:21;5.27;;;2.90;;
3054;SDS011;1537;52.018;8.542;2023-07-31T20:49:44;5.50;;;2.87;;
3054;SDS011;1537;52.018;8.542;2023-07-31T20:53:08;4.63;;;2.53;;
3054;SDS011;1537;52.018;8.542;2023-07-31T20:56:33;6.27;;;3.40;;
3054;SDS011;1537;52.018;8.542;2023-07-31T20:59:56;4.17;;;2.00;;
3054;SDS011;1537;52.018;8.542;2023-07-31T21:03:21;4.97;;;2.40;;